createdAt,value
2023-03-30T00:01:17.091Z,8.80
2023-03-30T00:03:45.903Z,9.30
2023-03-30T00:06:15.218Z,8.35
2023-03-30T00:08:41.577Z,8.90
2023-03-30T00:11:11.770Z,8.68
2023-03-30T00:13:38.565Z,8.65
2023-03-30T00:16:07.955Z,10.40
2023-03-30T00:18:34.584Z,9.18
2023-03-30T00:21:02.813Z,8.25
2023-03-30T00:23:30.179Z,9.13
2023-03-30T00:25:56.773Z,9.15
2023-03-30T00:28:23.201Z,9.32
2023-03-30T00:30:49.844Z,8.88
2023-03-30T00:33:16.233Z,7.82
2023-03-30T00:35:42.726Z,7.35
2023-03-30T00:38:09.158Z,8.07
2023-03-30T00:40:35.730Z,8.15
2023-03-30T00:43:06.585Z,9.25
2023-03-30T00:45:34.274Z,8.15
2023-03-30T00:48:09.199Z,8.43
2023-03-30T00:51:02.553Z,7.55
2023-03-30T00:53:48.627Z,9.27
2023-03-30T00:56:19.342Z,7.88
2023-03-30T00:58:46.635Z,8.38
2023-03-30T01:01:18.737Z,10.65
2023-03-30T01:03:47.987Z,7.95
2023-03-30T01:06:17.770Z,8.02
2023-03-30T01:08:45.113Z,7.22
2023-03-30T01:11:11.487Z,8.73
2023-03-30T01:13:42.146Z,7.63
2023-03-30T01:16:33.032Z,7.65
2023-03-30T01:19:16.372Z,7.45
2023-03-30T01:22:20.273Z,7.90
2023-03-30T01:25:10.541Z,8.02
2023-03-30T01:27:50.314Z,9.18
2023-03-30T01:31:03.459Z,8.73
2023-03-30T01:33:39.182Z,7.45
2023-03-30T01:36:45.683Z,8.07
2023-03-30T01:39:55.667Z,8.82
2023-03-30T01:42:46.158Z,8.85
2023-03-30T01:45:42.409Z,8.27
2023-03-30T01:48:12.845Z,7.88
2023-03-30T01:50:50.729Z,8.85
2023-03-30T01:53:26.657Z,9.45
2023-03-30T01:55:58.131Z,11.07
2023-03-30T01:58:34.071Z,9.77
2023-03-30T02:01:02.588Z,10.43
2023-03-30T02:03:32.980Z,8.93
2023-03-30T02:06:07.065Z,8.80
2023-03-30T02:08:36.763Z,8.80
2023-03-30T02:11:04.080Z,9.30
2023-03-30T02:13:32.697Z,9.48
2023-03-30T02:16:07.183Z,9.32
2023-03-30T02:18:33.566Z,9.52
2023-03-30T02:21:02.199Z,9.15
2023-03-30T02:23:34.842Z,9.38
2023-03-30T02:26:01.906Z,9.30
2023-03-30T02:28:28.343Z,8.52
2023-03-30T02:30:54.749Z,9.30
2023-03-30T02:33:40.102Z,7.90
2023-03-30T02:36:29.774Z,8.65
2023-03-30T02:39:05.622Z,9.27
2023-03-30T02:42:00.384Z,9.95
2023-03-30T02:44:59.860Z,9.15
2023-03-30T02:47:38.090Z,8.68
2023-03-30T02:50:18.050Z,12.05
2023-03-30T02:52:44.821Z,10.02
2023-03-30T02:55:29.070Z,10.15
2023-03-30T02:58:18.420Z,10.80
2023-03-30T03:00:51.256Z,10.57
2023-03-30T03:03:24.245Z,9.45
2023-03-30T03:05:55.935Z,12.70
2023-03-30T03:08:24.755Z,9.43
2023-03-30T03:10:51.725Z,9.10
2023-03-30T03:13:20.542Z,10.02
2023-03-30T03:15:49.340Z,9.25
2023-03-30T03:18:15.654Z,10.18
2023-03-30T03:20:42.580Z,8.82
2023-03-30T03:23:08.947Z,9.15
2023-03-30T03:25:36.281Z,9.30
2023-03-30T03:28:02.624Z,9.95
2023-03-30T03:30:29.032Z,9.27
2023-03-30T03:32:56.019Z,9.50
2023-03-30T03:35:22.463Z,9.48
2023-03-30T03:37:48.828Z,8.90
2023-03-30T03:40:15.575Z,10.10
2023-03-30T03:42:42.382Z,9.38
2023-03-30T03:45:09.266Z,8.57
2023-03-30T03:47:35.831Z,9.15
2023-03-30T03:50:04.079Z,9.30
2023-03-30T03:52:31.167Z,8.90
2023-03-30T03:54:57.545Z,9.65
2023-03-30T03:57:24.326Z,9.40
2023-03-30T03:59:52.915Z,11.05
2023-03-30T04:02:21.248Z,11.20
2023-03-30T04:04:50.218Z,7.90
2023-03-30T04:07:16.728Z,7.60
2023-03-30T04:09:43.067Z,7.65
2023-03-30T04:12:09.433Z,7.93
2023-03-30T04:14:35.881Z,8.60
2023-03-30T04:17:02.572Z,9.43
2023-03-30T04:19:31.343Z,7.72
2023-03-30T04:21:58.900Z,9.20
2023-03-30T04:24:27.875Z,8.50
2023-03-30T04:26:54.174Z,9.35
2023-03-30T04:29:23.388Z,8.18
2023-03-30T04:31:51.001Z,8.70
2023-03-30T04:34:21.844Z,9.00
2023-03-30T04:36:57.370Z,9.43
2023-03-30T04:39:31.623Z,8.38
2023-03-30T04:41:57.962Z,8.50
2023-03-30T04:44:24.515Z,10.60
2023-03-30T04:46:50.925Z,8.82
2023-03-30T04:49:17.293Z,8.13
2023-03-30T04:51:43.594Z,8.38
2023-03-30T04:54:10.001Z,9.30
2023-03-30T04:56:36.362Z,8.25
2023-03-30T04:59:02.711Z,7.97
2023-03-30T05:01:29.048Z,8.25
2023-03-30T05:04:17.012Z,8.13
2023-03-30T05:06:44.067Z,7.25
2023-03-30T05:09:10.741Z,7.60
2023-03-30T05:11:37.107Z,8.48
2023-03-30T05:14:03.535Z,8.80
2023-03-30T05:16:29.900Z,8.65
2023-03-30T05:18:56.633Z,7.88
2023-03-30T05:21:23.062Z,8.48
2023-03-30T05:23:49.481Z,8.05
2023-03-30T05:26:16.241Z,8.13
2023-03-30T05:28:43.049Z,7.82
2023-03-30T05:31:09.467Z,10.07
2023-03-30T05:33:35.871Z,11.52
2023-03-30T05:36:02.235Z,8.57
2023-03-30T05:38:28.572Z,8.90
2023-03-30T05:40:55.054Z,9.00
2023-03-30T05:43:21.454Z,9.10
2023-03-30T05:45:48.248Z,8.70
2023-03-30T05:48:14.646Z,8.60
2023-03-30T05:50:42.751Z,7.85
2023-03-30T05:53:09.209Z,7.60
2023-03-30T05:55:35.593Z,7.68
2023-03-30T05:58:02.729Z,8.02
2023-03-30T06:00:29.186Z,8.25
2023-03-30T06:02:55.681Z,8.60
2023-03-30T06:05:22.281Z,8.85
2023-03-30T06:07:49.550Z,8.73
2023-03-30T06:10:16.253Z,9.02
2023-03-30T06:12:42.739Z,12.13
2023-03-30T06:15:12.151Z,9.55
2023-03-30T06:17:38.581Z,8.88
2023-03-30T06:20:11.299Z,8.85
2023-03-30T06:22:38.289Z,8.90
2023-03-30T06:25:05.860Z,9.57
2023-03-30T06:27:32.934Z,10.25
2023-03-30T06:29:59.357Z,9.15
2023-03-30T06:32:25.763Z,9.68
2023-03-30T06:34:53.070Z,9.25
2023-03-30T06:37:20.500Z,8.43
2023-03-30T06:39:47.237Z,9.70
2023-03-30T06:42:13.676Z,9.10
2023-03-30T06:44:40.020Z,8.15
2023-03-30T06:47:07.601Z,8.68
2023-03-30T06:49:34.061Z,8.57
2023-03-30T06:52:04.395Z,8.52
2023-03-30T06:54:31.975Z,7.55
2023-03-30T06:56:58.435Z,8.93
2023-03-30T06:59:24.860Z,8.18
2023-03-30T07:01:51.707Z,8.55
2023-03-30T07:04:18.325Z,10.15
2023-03-30T07:06:44.705Z,8.32
2023-03-30T07:09:12.817Z,8.82
2023-03-30T07:11:39.137Z,9.50
2023-03-30T07:14:05.953Z,9.73
2023-03-30T07:16:32.348Z,10.00
2023-03-30T07:18:58.875Z,15.60
2023-03-30T07:21:25.501Z,10.27
2023-03-30T07:23:51.873Z,15.35
2023-03-30T07:26:18.309Z,23.10
2023-03-30T07:28:46.283Z,14.80
2023-03-30T07:31:14.266Z,18.35
2023-03-30T07:33:41.061Z,17.70
2023-03-30T07:36:08.537Z,19.70
2023-03-30T07:38:35.069Z,21.10
2023-03-30T07:41:01.790Z,21.75
2023-03-30T07:43:28.444Z,26.33
2023-03-30T07:45:55.007Z,23.50
2023-03-30T07:48:21.438Z,23.58
2023-03-30T07:50:47.931Z,24.60
2023-03-30T07:53:14.316Z,27.95
2023-03-30T07:55:41.269Z,25.67
2023-03-30T07:58:07.870Z,25.10
2023-03-30T08:00:34.243Z,27.05
2023-03-30T08:03:00.677Z,25.48
2023-03-30T08:05:27.099Z,24.35
2023-03-30T08:07:53.485Z,26.05
2023-03-30T08:10:19.985Z,29.20
2023-03-30T08:12:46.395Z,25.58
2023-03-30T08:15:12.802Z,28.63
2023-03-30T08:17:39.321Z,32.92
2023-03-30T08:20:10.737Z,27.92
2023-03-30T08:22:37.172Z,28.98
2023-03-30T08:25:03.684Z,27.08
2023-03-30T08:27:30.219Z,25.67
2023-03-30T08:29:56.628Z,27.35
2023-03-30T08:32:23.697Z,26.40
2023-03-30T08:34:50.326Z,21.75
2023-03-30T08:37:16.732Z,21.65
2023-03-30T08:39:43.510Z,22.38
2023-03-30T08:42:09.955Z,23.50
2023-03-30T08:44:42.001Z,22.35
2023-03-30T08:47:16.664Z,19.67
2023-03-30T08:49:52.840Z,20.95
2023-03-30T08:52:23.954Z,21.90
2023-03-30T08:54:52.086Z,23.02
2023-03-30T08:57:38.002Z,23.60
2023-03-30T09:00:12.324Z,31.52
2023-03-30T09:05:22.994Z,36.58
2023-03-30T09:07:52.125Z,36.97
2023-03-30T09:10:19.806Z,38.47
2023-03-30T09:12:56.775Z,37.92
2023-03-30T09:15:33.416Z,42.28
2023-03-30T09:18:17.033Z,43.83
2023-03-30T09:20:46.099Z,40.63
2023-03-30T09:23:15.536Z,53.13
2023-03-30T09:25:47.322Z,42.65
2023-03-30T09:28:21.142Z,45.25
2023-03-30T09:31:13.434Z,45.45
2023-03-30T09:33:53.180Z,35.67
2023-03-30T09:36:28.284Z,39.55
2023-03-30T09:38:54.720Z,31.83
2023-03-30T09:42:05.594Z,34.22
2023-03-30T09:44:46.184Z,40.05
2023-03-30T09:47:24.793Z,42.17
2023-03-30T09:50:03.617Z,42.13
2023-03-30T09:52:36.946Z,41.00
2023-03-30T09:55:27.109Z,47.80
2023-03-30T09:57:54.598Z,44.78
2023-03-30T10:00:31.262Z,44.05
2023-03-30T10:03:05.286Z,44.28
2023-03-30T10:05:34.216Z,46.25
2023-03-30T10:08:16.625Z,45.80
2023-03-30T10:10:43.038Z,42.30
2023-03-30T10:13:14.361Z,43.22
2023-03-30T10:15:46.297Z,40.65
2023-03-30T10:18:19.317Z,39.28
2023-03-30T10:21:15.168Z,31.85
2023-03-30T10:23:44.788Z,27.75
2023-03-30T10:26:20.610Z,25.73
2023-03-30T10:29:02.093Z,24.83
2023-03-30T10:31:28.760Z,29.65
2023-03-30T10:33:58.048Z,29.73
2023-03-30T10:36:30.833Z,29.88
2023-03-30T10:39:20.367Z,31.30
2023-03-30T10:41:47.530Z,20.98
2023-03-30T10:44:35.764Z,18.50
2023-03-30T10:47:28.526Z,9.88
2023-03-30T10:50:01.277Z,9.93
2023-03-30T10:53:12.288Z,9.25
2023-03-30T10:55:57.282Z,10.02
2023-03-30T10:58:43.205Z,10.80
2023-03-30T11:01:32.272Z,10.32
2023-03-30T11:04:26.506Z,8.32
2023-03-30T11:06:56.783Z,8.25
2023-03-30T11:09:30.102Z,8.95
2023-03-30T11:12:02.584Z,5.90
2023-03-30T11:14:44.046Z,8.25
2023-03-30T11:17:22.770Z,6.95
2023-03-30T11:19:55.359Z,7.95
2023-03-30T11:22:43.484Z,9.95
2023-03-30T11:25:20.857Z,7.40
2023-03-30T11:28:06.655Z,9.13
2023-03-30T11:30:36.163Z,8.48
2023-03-30T11:33:26.880Z,11.55
2023-03-30T11:36:18.785Z,10.90
2023-03-30T11:38:55.638Z,13.93
2023-03-30T11:41:31.759Z,20.35
2023-03-30T11:43:58.186Z,35.13
2023-03-30T11:46:34.276Z,28.77
2023-03-30T11:49:33.902Z,52.00
2023-03-30T11:52:09.313Z,39.63
2023-03-30T11:55:05.530Z,36.22
2023-03-30T11:57:38.862Z,37.45
2023-03-30T12:00:11.076Z,37.30
2023-03-30T12:02:54.713Z,43.63
2023-03-30T12:05:34.274Z,38.13
2023-03-30T12:08:22.007Z,41.30
2023-03-30T12:10:55.673Z,86.45
2023-03-30T12:13:22.070Z,42.58
2023-03-30T12:15:57.709Z,42.80
2023-03-30T12:18:44.099Z,73.72
2023-03-30T12:21:13.504Z,60.60
2023-03-30T12:23:49.697Z,38.40
2023-03-30T12:26:31.245Z,35.08
2023-03-30T12:32:04.320Z,26.52
2023-03-30T12:34:36.842Z,28.90
2023-03-30T12:37:18.229Z,19.80
2023-03-30T12:39:49.403Z,15.90
2023-03-30T12:42:26.432Z,23.77
2023-03-30T12:45:27.081Z,9.35
2023-03-30T12:47:59.625Z,10.50
2023-03-30T12:51:02.503Z,11.85
2023-03-30T12:54:08.236Z,6.97
2023-03-30T12:57:03.151Z,6.72
2023-03-30T13:00:09.605Z,8.88
2023-03-30T13:02:39.014Z,9.40
2023-03-30T13:05:18.719Z,9.55
2023-03-30T13:07:46.103Z,8.48
2023-03-30T13:10:30.945Z,7.78
2023-03-30T13:12:59.748Z,9.00
2023-03-30T13:15:49.547Z,9.30
2023-03-30T13:18:15.952Z,10.55
2023-03-30T13:20:48.216Z,11.23
2023-03-30T13:23:14.491Z,9.02
2023-03-30T13:25:52.541Z,9.38
2023-03-30T13:28:55.957Z,12.50
2023-03-30T13:31:31.161Z,18.80
2023-03-30T13:34:18.357Z,20.05
2023-03-30T13:37:04.506Z,19.00
2023-03-30T13:39:35.317Z,26.70
2023-03-30T13:42:22.139Z,27.92
2023-03-30T13:45:12.103Z,23.73
2023-03-30T13:47:57.542Z,21.58
2023-03-30T13:50:34.172Z,19.13
2023-03-30T13:53:07.499Z,13.27
2023-03-30T13:55:49.377Z,15.98
2023-03-30T13:58:23.173Z,16.35
2023-03-30T14:00:53.510Z,24.38
2023-03-30T14:03:31.938Z,28.13
2023-03-30T14:06:03.767Z,34.38
2023-03-30T14:08:34.330Z,64.40
2023-03-30T14:11:03.641Z,47.20
2023-03-30T14:13:30.489Z,42.85
2023-03-30T14:15:57.020Z,41.42
2023-03-30T14:18:25.325Z,65.57
2023-03-30T14:21:00.651Z,47.40
2023-03-30T14:23:39.346Z,45.08
2023-03-30T14:26:17.053Z,41.88
2023-03-30T14:28:44.033Z,45.33
2023-03-30T14:31:14.619Z,36.63
2023-03-30T14:33:41.346Z,32.97
2023-03-30T14:36:11.611Z,33.55
2023-03-30T14:38:41.138Z,36.38
2023-03-30T14:41:12.073Z,38.85
2023-03-30T14:43:40.689Z,30.95
2023-03-30T14:46:11.618Z,27.08
2023-03-30T14:48:41.770Z,34.83
2023-03-30T14:51:23.653Z,41.03
2023-03-30T14:53:52.231Z,34.75
2023-03-30T14:56:19.694Z,26.77
2023-03-30T14:58:48.102Z,28.23
2023-03-30T15:01:18.541Z,29.23
2023-03-30T15:03:46.828Z,32.38
2023-03-30T15:06:19.696Z,29.42
2023-03-30T15:08:47.429Z,29.90
2023-03-30T15:11:22.605Z,39.92
2023-03-30T15:13:52.907Z,41.15
2023-03-30T15:16:27.294Z,52.55
2023-03-30T15:19:00.396Z,57.40
2023-03-30T15:21:31.485Z,84.35
2023-03-30T15:24:00.241Z,114.28
2023-03-30T15:26:29.931Z,82.13
2023-03-30T15:29:00.917Z,64.88
2023-03-30T15:31:28.671Z,67.15
2023-03-30T15:33:58.994Z,64.40
2023-03-30T15:36:36.751Z,66.72
2023-03-30T15:39:18.736Z,63.95
2023-03-30T15:41:58.598Z,67.05
2023-03-30T15:44:25.023Z,62.72
2023-03-30T15:46:56.141Z,59.33
2023-03-30T15:49:30.681Z,68.50
2023-03-30T15:52:01.923Z,95.47
2023-03-30T15:54:34.481Z,264.48
2023-03-30T15:57:10.983Z,294.23
2023-03-30T15:59:43.283Z,84.88
2023-03-30T16:02:37.589Z,55.83
2023-03-30T16:05:07.684Z,33.95
2023-03-30T16:07:36.014Z,47.83
2023-03-30T16:10:02.400Z,46.80
2023-03-30T16:12:30.980Z,44.17
2023-03-30T16:14:58.147Z,41.25
2023-03-30T16:17:24.628Z,40.33
2023-03-30T16:19:51.085Z,45.25
2023-03-30T16:22:17.512Z,41.50
2023-03-30T16:24:43.989Z,36.58
2023-03-30T16:27:11.838Z,36.47
2023-03-30T16:29:38.438Z,35.30
2023-03-30T16:32:05.376Z,37.30
2023-03-30T16:34:31.914Z,36.60
2023-03-30T16:36:58.310Z,38.13
2023-03-30T16:39:27.746Z,35.58
2023-03-30T16:41:55.462Z,31.35
2023-03-30T16:44:23.938Z,39.85
2023-03-30T16:46:51.535Z,35.78
2023-03-30T16:49:23.268Z,38.53
2023-03-30T16:51:51.338Z,37.47
2023-03-30T16:54:30.525Z,35.83
2023-03-30T16:56:58.204Z,39.38
2023-03-30T16:59:26.795Z,40.83
2023-03-30T17:01:53.211Z,42.10
2023-03-30T17:04:19.791Z,52.15
2023-03-30T17:06:46.280Z,55.13
2023-03-30T17:09:16.916Z,54.83
2023-03-30T17:11:44.237Z,58.45
2023-03-30T17:14:11.108Z,60.60
2023-03-30T17:16:37.519Z,61.75
2023-03-30T17:19:04.605Z,59.22
2023-03-30T17:21:31.321Z,60.47
2023-03-30T17:23:57.838Z,62.33
2023-03-30T17:26:24.412Z,66.13
2023-03-30T17:28:52.119Z,63.97
2023-03-30T17:31:20.951Z,59.47
2023-03-30T17:33:48.349Z,61.40
2023-03-30T17:36:20.506Z,64.72
2023-03-30T17:38:47.540Z,62.28
2023-03-30T17:41:15.546Z,59.38
2023-03-30T17:43:43.315Z,63.80
2023-03-30T17:46:12.985Z,69.03
2023-03-30T17:48:39.467Z,63.58
2023-03-30T17:51:06.379Z,65.70
2023-03-30T17:53:33.662Z,46.97
2023-03-30T17:56:00.622Z,34.53
2023-03-30T17:58:32.652Z,32.83
2023-03-30T18:01:00.896Z,34.25
2023-03-30T18:03:29.304Z,32.47
2023-03-30T18:05:57.669Z,32.67
2023-03-30T18:08:25.579Z,34.15
2023-03-30T18:10:53.993Z,34.22
2023-03-30T18:13:21.569Z,36.78
2023-03-30T18:15:50.360Z,36.15
2023-03-30T18:18:22.674Z,33.17
2023-03-30T18:20:50.570Z,35.05
2023-03-30T18:23:17.231Z,33.63
2023-03-30T18:25:43.792Z,35.63
2023-03-30T18:28:24.935Z,33.40
2023-03-30T18:30:57.476Z,34.50
2023-03-30T18:33:24.767Z,36.53
2023-03-30T18:35:52.490Z,36.65
2023-03-30T18:38:20.636Z,33.88
2023-03-30T18:40:53.453Z,33.90
2023-03-30T18:43:19.818Z,35.67
2023-03-30T18:45:48.465Z,34.00
2023-03-30T18:48:17.934Z,32.95
2023-03-30T18:50:46.269Z,32.97
2023-03-30T18:53:18.656Z,33.00
2023-03-30T18:55:47.535Z,31.98
2023-03-30T18:58:16.669Z,32.97
2023-03-30T19:00:43.159Z,32.13
2023-03-30T19:03:10.602Z,30.20
2023-03-30T19:05:39.030Z,33.05
2023-03-30T19:08:05.547Z,30.65
2023-03-30T19:10:36.160Z,32.53
2023-03-30T19:13:02.528Z,32.15
2023-03-30T19:15:33.916Z,32.05
2023-03-30T19:18:01.610Z,34.70
2023-03-30T19:20:30.339Z,32.58
2023-03-30T19:22:56.759Z,32.97
2023-03-30T19:25:25.766Z,32.35
2023-03-30T19:28:02.664Z,33.50
2023-03-30T19:30:32.335Z,33.10
2023-03-30T19:33:02.129Z,32.92
2023-03-30T19:35:29.451Z,32.30
2023-03-30T19:37:56.297Z,31.75
2023-03-30T19:40:23.715Z,33.42
2023-03-30T19:42:50.715Z,34.55
2023-03-30T19:45:19.548Z,33.40
2023-03-30T19:47:46.052Z,31.85
2023-03-30T19:50:17.714Z,32.75
2023-03-30T19:52:48.389Z,32.97
2023-03-30T19:55:14.791Z,32.70
2023-03-30T19:57:41.176Z,29.13
2023-03-30T20:00:12.746Z,29.50
2023-03-30T20:02:40.050Z,33.72
2023-03-30T20:05:09.909Z,30.42
2023-03-30T20:07:37.505Z,32.42
2023-03-30T20:10:06.249Z,30.35
2023-03-30T20:12:33.134Z,32.53
2023-03-30T20:15:00.541Z,32.08
2023-03-30T20:17:29.858Z,33.08
2023-03-30T20:19:58.018Z,32.15
2023-03-30T20:22:25.266Z,32.97
2023-03-30T20:24:51.686Z,33.05
2023-03-30T20:27:18.030Z,33.03
2023-03-30T20:29:44.388Z,30.73
2023-03-30T20:32:10.833Z,32.75
2023-03-30T20:34:37.168Z,32.50
2023-03-30T20:37:03.514Z,32.65
2023-03-30T20:39:29.890Z,33.03
2023-03-30T20:42:01.928Z,31.83
2023-03-30T20:44:31.686Z,32.55
2023-03-30T20:46:59.195Z,32.40
2023-03-30T20:49:26.387Z,31.25
2023-03-30T20:51:53.177Z,33.75
2023-03-30T20:54:20.588Z,31.58
2023-03-30T20:56:47.087Z,31.10
2023-03-30T20:59:13.478Z,33.13
2023-03-30T21:01:43.346Z,34.30
2023-03-30T21:04:09.805Z,33.05
2023-03-30T21:06:36.617Z,34.42
2023-03-30T21:09:05.813Z,34.03
2023-03-30T21:11:38.570Z,34.45
2023-03-30T21:14:06.549Z,33.10
2023-03-30T21:16:33.468Z,34.20
2023-03-30T21:18:59.887Z,32.90
2023-03-30T21:21:26.973Z,34.55
2023-03-30T21:23:53.295Z,31.45
2023-03-30T21:26:19.668Z,31.48
2023-03-30T21:28:46.111Z,32.75
2023-03-30T21:31:14.224Z,33.90
2023-03-30T21:33:41.201Z,34.83
2023-03-30T21:36:08.307Z,35.75
2023-03-30T21:38:35.612Z,32.30
2023-03-30T21:41:16.878Z,30.30
2023-03-30T21:43:48.326Z,36.20
2023-03-30T21:46:18.104Z,32.60
2023-03-30T21:48:45.816Z,33.38
2023-03-30T21:51:20.851Z,34.47
2023-03-30T21:53:50.573Z,35.55
2023-03-30T21:56:19.076Z,32.03
2023-03-30T21:58:45.752Z,33.15
2023-03-30T22:01:13.041Z,34.85
2023-03-30T22:03:42.041Z,33.50
2023-03-30T22:06:10.510Z,33.75
2023-03-30T22:08:37.472Z,35.00
2023-03-30T22:11:07.449Z,33.83
2023-03-30T22:13:34.138Z,37.00
2023-03-30T22:16:00.679Z,33.88
2023-03-30T22:18:27.946Z,34.45
2023-03-30T22:20:57.724Z,37.75
2023-03-30T22:23:24.147Z,34.78
2023-03-30T22:25:51.238Z,36.67
2023-03-30T22:28:17.701Z,36.15
2023-03-30T22:30:44.690Z,38.25
2023-03-30T22:33:12.024Z,34.17
2023-03-30T22:35:40.955Z,37.17
2023-03-30T22:38:08.434Z,32.92
2023-03-30T22:40:35.918Z,35.67
2023-03-30T22:43:03.297Z,36.63
2023-03-30T22:45:30.547Z,34.70
2023-03-30T22:47:58.326Z,34.38
2023-03-30T22:50:26.269Z,35.88
2023-03-30T22:52:52.703Z,34.28
2023-03-30T22:55:19.741Z,32.03
2023-03-30T22:57:46.905Z,34.13
2023-03-30T23:00:16.999Z,32.85
2023-03-30T23:02:43.961Z,33.45
2023-03-30T23:05:14.358Z,33.72
2023-03-30T23:07:44.197Z,33.10
2023-03-30T23:10:14.646Z,32.67
2023-03-30T23:12:42.096Z,33.17
2023-03-30T23:15:10.508Z,29.15
2023-03-30T23:17:37.215Z,31.13
2023-03-30T23:20:05.351Z,31.77
2023-03-30T23:22:31.860Z,30.67
2023-03-30T23:24:58.751Z,29.52
2023-03-30T23:27:25.469Z,32.30
2023-03-30T23:29:52.737Z,31.75
2023-03-30T23:32:19.439Z,31.67
2023-03-30T23:34:46.490Z,30.98
2023-03-30T23:37:12.950Z,31.15
2023-03-30T23:39:39.378Z,32.88
2023-03-30T23:42:06.932Z,33.67
2023-03-30T23:44:33.335Z,31.92
2023-03-30T23:47:00.621Z,30.77
2023-03-30T23:49:27.186Z,29.52
2023-03-30T23:51:53.556Z,31.08
2023-03-30T23:54:19.987Z,28.42
2023-03-30T23:56:46.957Z,28.77
2023-03-30T23:59:13.495Z,27.30
